Bouzas — EAPC — position and weather

sailwx.info

Track history (hours):
 
Tides and Currents Weather Stations Pressure Air Temp Water Temp Dewpoint Dewpoint Depression Visibility Wind Speed Wind Dir Waves Ship Positions

Bouzas

Last reported at 2014-Sep-20 17:28 UTC. Time now 2014-Sep-24 00:25 UTC.
Position N 36°02' W 005°22'.

Length 142 m; draft 6 m.

Type: Cargo ship. MMSI: 224029000.

Date/timePositionNaut miles runAvg speedWind from/ knotsBaromVisibWave heightAir tempDewpointWater temp
2014-Sep-20 17:28N 36°02' W 005°22'17316.9
2014-Sep-20 07:15N 36°39' W 001°53'1318.4
2014-Sep-20 06:33N 36°47' W 001°41'1918.7
2014-Sep-20 05:33N 36°59' W 001°23'1918.9
2014-Sep-20 04:32N 37°12' W 001°04'1919.2
2014-Sep-20 03:33N 37°24' W 000°46'1919.1
2014-Sep-20 02:33N 37°38' W 000°30'1918.9
2014-Sep-20 01:33N 37°54' W 000°17'1919.0
2014-Sep-20 00:32N 38°10' W 000°04'1919.1
2014-Sep-19 23:32N 38°26' E 000°10'5618.7
2014-Sep-19 20:32N 39°15' E 000°45'4319.2
2014-Sep-19 18:16N 39°53' E 001°12'1216.5
2014-Sep-19 17:33N 40°03' E 001°20'1918.9
2014-Sep-19 16:33N 40°20' E 001°32'1918.8
2014-Sep-19 15:33N 40°36' E 001°44'1918.5
2014-Sep-19 14:33N 40°52' E 001°57'1918.7
2014-Sep-19 13:32N 41°08' E 002°11'78 4.5
2014-Sep-18 20:18N 40°00' E 001°20'1010.7
2014-Sep-18 19:25N 39°51' E 001°15'13112.9
2014-Sep-18 09:14N 37°58' W 000°10'1613.5
2014-Sep-18 08:05N 37°45' W 000°21'713.3
2014-Sep-18 07:33N 37°39' W 000°26'1313.2
2014-Sep-18 06:33N 37°29' W 000°37'1513.6
2014-Sep-18 05:27N 37°19' W 000°51'22714.3
2014-Sep-17 13:32N 35°58' W 005°15'  
2014-Sep-13 21:20N 35°35' W 006°42'1417.9
2014-Sep-13 20:33N 35°41' W 006°27'3516.9
2014-Sep-13 18:30N 35°57' W 005°49'20816.9
2014-Sep-13 06:13N 36°48' W 001°39'1218.9
2014-Sep-13 05:33N 36°56' W 001°27'1918.8
2014-Sep-13 04:33N 37°09' W 001°09'2019.0
2014-Sep-13 03:31N 37°22' W 000°50'1919.1
2014-Sep-13 02:33N 37°34' W 000°33'1919.0
2014-Sep-13 01:33N 37°50' W 000°20'1919.1
2014-Sep-13 00:33N 38°06' W 000°06'2319.2
2014-Sep-12 23:22N 38°25' E 000°09'1518.6
2014-Sep-12 22:33N 38°38' E 000°20'1917.7
2014-Sep-12 21:30N 38°54' E 000°31'1818.6
2014-Sep-12 20:33N 39°09' E 000°42'4219.0
2014-Sep-12 18:21N 39°46' E 001°08'1619.3
2014-Sep-12 17:31N 40°00' E 001°18'1919.5
2014-Sep-12 16:32N 40°17' E 001°30'1818.5
2014-Sep-12 15:33N 40°33' E 001°42'1919.0
2014-Sep-12 14:33N 40°49' E 001°56'3417.0
2014-Sep-12 12:31N 41°21' E 002°11'1 0.1
2014-Sep-12 04:21N 41°22' E 002°11'4 5.2
2014-Sep-12 03:33N 41°19' E 002°15'1010.2
2014-Sep-12 02:33N 41°10' E 002°11'1313.4
2014-Sep-12 01:33N 40°58' E 002°02'1413.7
2014-Sep-12 00:33N 40°46' E 001°53'1413.5
2014-Sep-11 23:33N 40°34' E 001°45'1413.8
2014-Sep-11 22:33N 40°21' E 001°37'1414.0
2014-Sep-11 21:33N 40°08' E 001°30'1212.4
2014-Sep-11 20:33N 39°58' E 001°22'1111.3
2014-Sep-11 19:33N 39°48' E 001°14'4112.7
2014-Sep-11 16:19N 39°12' E 000°48'1114.8
2014-Sep-11 15:33N 39°02' E 000°41'1212.1
2014-Sep-11 14:33N 38°51' E 000°34'1514.7
2014-Sep-11 13:33N 38°38' E 000°25'1414.2
2014-Sep-11 12:33N 38°27' E 000°15'1414.3
2014-Sep-11 11:33N 38°15' E 000°05'1414.5
2014-Sep-11 10:33N 38°03' W 000°06'1514.4
2014-Sep-11 09:29N 37°50' W 000°16'1314.0
2014-Sep-11 08:33N 37°39' W 000°25'1414.1
2014-Sep-11 07:33N 37°29' W 000°37'1413.8
2014-Sep-11 06:33N 37°19' W 000°50'1414.1
2014-Sep-11 05:33N 37°10' W 001°03'1614.1
2014-Sep-11 04:27N 36°60' W 001°18'  
Track history (hours):
 
Tides and Currents Weather Stations Pressure Air Temp Water Temp Dewpoint Dewpoint Depression Visibility Wind Speed Wind Dir Waves Ship Positions

Bouzas

Last reported at 2014-Sep-20 17:28 UTC. Time now 2014-Sep-24 00:25 UTC.
Position N 36°02' W 005°22'.

Length 142 m; draft 6 m.

Type: Cargo ship. MMSI: 224029000.

Date/timePositionNaut miles runAvg speedWind from/ knotsBaromVisibWave heightAir tempDewpointWater temp
2014-Sep-20 17:28N 36°02' W 005°22'17316.9
2014-Sep-20 07:15N 36°39' W 001°53'1318.4
2014-Sep-20 06:33N 36°47' W 001°41'1918.7
2014-Sep-20 05:33N 36°59' W 001°23'1918.9
2014-Sep-20 04:32N 37°12' W 001°04'1919.2
2014-Sep-20 03:33N 37°24' W 000°46'1919.1
2014-Sep-20 02:33N 37°38' W 000°30'1918.9
2014-Sep-20 01:33N 37°54' W 000°17'1919.0
2014-Sep-20 00:32N 38°10' W 000°04'1919.1
2014-Sep-19 23:32N 38°26' E 000°10'5618.7
2014-Sep-19 20:32N 39°15' E 000°45'4319.2
2014-Sep-19 18:16N 39°53' E 001°12'1216.5
2014-Sep-19 17:33N 40°03' E 001°20'1918.9
2014-Sep-19 16:33N 40°20' E 001°32'1918.8
2014-Sep-19 15:33N 40°36' E 001°44'1918.5
2014-Sep-19 14:33N 40°52' E 001°57'1918.7
2014-Sep-19 13:32N 41°08' E 002°11'78 4.5
2014-Sep-18 20:18N 40°00' E 001°20'1010.7
2014-Sep-18 19:25N 39°51' E 001°15'13112.9
2014-Sep-18 09:14N 37°58' W 000°10'1613.5
2014-Sep-18 08:05N 37°45' W 000°21'713.3
2014-Sep-18 07:33N 37°39' W 000°26'1313.2
2014-Sep-18 06:33N 37°29' W 000°37'1513.6
2014-Sep-18 05:27N 37°19' W 000°51'22714.3
2014-Sep-17 13:32N 35°58' W 005°15'  
2014-Sep-13 21:20N 35°35' W 006°42'1417.9
2014-Sep-13 20:33N 35°41' W 006°27'3516.9
2014-Sep-13 18:30N 35°57' W 005°49'20816.9
2014-Sep-13 06:13N 36°48' W 001°39'1218.9
2014-Sep-13 05:33N 36°56' W 001°27'1918.8
2014-Sep-13 04:33N 37°09' W 001°09'2019.0
2014-Sep-13 03:31N 37°22' W 000°50'1919.1
2014-Sep-13 02:33N 37°34' W 000°33'1919.0
2014-Sep-13 01:33N 37°50' W 000°20'1919.1
2014-Sep-13 00:33N 38°06' W 000°06'2319.2
2014-Sep-12 23:22N 38°25' E 000°09'1518.6
2014-Sep-12 22:33N 38°38' E 000°20'1917.7
2014-Sep-12 21:30N 38°54' E 000°31'1818.6
2014-Sep-12 20:33N 39°09' E 000°42'4219.0
2014-Sep-12 18:21N 39°46' E 001°08'1619.3
2014-Sep-12 17:31N 40°00' E 001°18'1919.5
2014-Sep-12 16:32N 40°17' E 001°30'1818.5
2014-Sep-12 15:33N 40°33' E 001°42'1919.0
2014-Sep-12 14:33N 40°49' E 001°56'3417.0
2014-Sep-12 12:31N 41°21' E 002°11'1 0.1
2014-Sep-12 04:21N 41°22' E 002°11'4 5.2
2014-Sep-12 03:33N 41°19' E 002°15'1010.2
2014-Sep-12 02:33N 41°10' E 002°11'1313.4
2014-Sep-12 01:33N 40°58' E 002°02'1413.7
2014-Sep-12 00:33N 40°46' E 001°53'1413.5
2014-Sep-11 23:33N 40°34' E 001°45'1413.8
2014-Sep-11 22:33N 40°21' E 001°37'1414.0
2014-Sep-11 21:33N 40°08' E 001°30'1212.4
2014-Sep-11 20:33N 39°58' E 001°22'1111.3
2014-Sep-11 19:33N 39°48' E 001°14'4112.7
2014-Sep-11 16:19N 39°12' E 000°48'1114.8
2014-Sep-11 15:33N 39°02' E 000°41'1212.1
2014-Sep-11 14:33N 38°51' E 000°34'1514.7
2014-Sep-11 13:33N 38°38' E 000°25'1414.2
2014-Sep-11 12:33N 38°27' E 000°15'1414.3
2014-Sep-11 11:33N 38°15' E 000°05'1414.5
2014-Sep-11 10:33N 38°03' W 000°06'1514.4
2014-Sep-11 09:29N 37°50' W 000°16'1314.0
2014-Sep-11 08:33N 37°39' W 000°25'1414.1
2014-Sep-11 07:33N 37°29' W 000°37'1413.8
2014-Sep-11 06:33N 37°19' W 000°50'1414.1
2014-Sep-11 05:33N 37°10' W 001°03'1614.1
2014-Sep-11 04:27N 36°60' W 001°18'  

Dump ship's entire track history